Data for 08/08/2014

Time Sea-Level Adjusted Pressure Absolute Pressure Temperature Relative Humidity Dew Point Precipitation   
(mb) (inHg) (mb) (inHg) (C) (F) (%) (C) (F) (mm) (in)
00:05 1021 30.15 850 25.1 13.7 56.6 65 7.2 45 0 0
00:10 1021 30.15 850 25.1 13.1 55.5 71 7.9 46.2 0 0
00:15 1021 30.15 850 25.1 12.5 54.6 68 6.8 44.3 0 0
00:20 1021 30.15 850 25.1 13 55.3 68 7.2 45 0 0
00:25 1021 30.15 850 25.1 12.8 55 68 7.1 44.8 0 0
00:30 1021 30.15 850 25.1 12.5 54.4 69 7.1 44.7 0 0
00:35 1021 30.15 850 25.1 12.6 54.6 70 7.3 45.1 0 0
00:40 1021 30.15 850 25.1 12.4 54.4 71 7.4 45.4 0 0
00:45 1021 30.15 850 25.1 12.2 53.9 74 7.7 45.8 0 0
00:50 1021 30.15 850 25.1 12.1 53.7 73 7.5 45.4 0 0
00:55 1021 30.15 850 25.1 12.4 54.3 73 7.7 45.8 0 0
01:00 1021 30.15 850 25.1 12.5 54.5 71 7.4 45.3 0 0
01:05 1021 30.15 850 25.1 13 55.3 70 7.7 45.9 0 0
01:10 1021 30.15 850 25.1 12.8 55.1 73 8.1 46.6 0 0
01:15 1021 30.15 850 25.1 12.3 54.2 75 8.1 46.6 0 0
01:20 1021 30.15 850 25.1 12.1 53.9 76 8.1 46.5 0 0
01:25 1021 30.15 850 25.1 11.9 53.4 77 7.9 46.3 0 0
01:30 1021 30.15 850 25.1 11.7 53 78 8.1 46.5 0 0
01:35 1021 30.15 850 25.1 11.4 52.5 76 7.3 45.2 0 0
01:40 1021 30.15 850 25.1 11.8 53.2 72 6.9 44.4 0 0
01:45 1021 30.15 850 25.1 12 53.6 71 6.9 44.4 0 0
01:50 1021 30.15 850 25.1 11.9 53.4 71 6.8 44.3 0 0
01:55 1021 30.15 850 25.1 11.8 53.2 70 6.5 43.7 0 0
02:00 1021 30.15 850 25.1 11.7 53 70 6.5 43.7 0 0
02:05 1021 30.15 850 25.1 11.8 53.2 69 6.3 43.4 0 0
02:10 1021 30.15 850 25.1 11.6 52.8 73 7 44.5 0 0
02:15 1021 30.15 850 25.1 11.2 52.1 72 6.4 43.5 0 0
02:20 1021 30.15 850 25.1 11.4 52.6 69 6 42.7 0 0
02:25 1021 30.15 850 25.1 12.1 53.8 65 5.8 42.5 0 0
02:30 1021 30.15 850 25.1 12.5 54.5 66 6.5 43.7 0 0
02:35 1021 30.15 850 25.1 11.9 53.4 69 6.4 43.5 0 0
02:40 1021 30.15 850 25.1 11.9 53.5 67 6.1 42.9 0 0
02:45 1021 30.15 850 25.1 11.9 53.5 68 6.4 43.4 0 0
02:50 1021 30.15 850 25.1 11.6 52.9 70 6.5 43.6 0 0
02:55 1021 30.15 850 25.1 11.2 52.2 72 6.4 43.5 0 0
03:00 1021 30.15 850 25.1 10.7 51.2 74 6.2 43.2 0 0
03:05 1021 30.15 850 25.1 10.7 51.3 75 6.6 43.8 0 0
03:10 1021 30.15 850 25.1 10.5 50.8 75 6.3 43.3 0 0
03:15 1021 30.15 850 25.1 9.7 49.5 80 6.5 43.6 0 0
03:20 1021 30.15 850 25.1 9.9 49.9 75 5.8 42.4 0 0
03:25 1021 30.15 850 25.1 10 49.9 78 6.3 43.3 0 0
03:30 1021 30.15 850 25.1 10.2 50.4 73 5.6 42.1 0 0
03:35 1021 30.15 850 25.1 11 51.8 71 6.1 43 0 0
03:40 1021 30.15 850 25.1 11.3 52.3 72 6.3 43.4 0 0
03:45 1021 30.15 850 25.1 11 51.7 73 6.4 43.5 0 0
03:50 1021 30.15 850 25.1 10.2 50.4 75 6.1 42.9 0 0
03:55 1021 30.15 850 25.1 10.7 51.2 68 5.1 41.2 0 0
04:00 1021 30.15 850 25.1 11.5 52.8 68 5.9 42.6 0 0
04:05 1021 30.15 850 25.1 11.2 52.2 71 6.2 43.2 0 0
04:10 1021 30.15 850 25.1 10.8 51.5 72 6 42.9 0 0
04:15 1021 30.15 850 25.1 10.6 51.1 72 5.8 42.4 0 0
04:20 1021 30.15 850 25.1 10.4 50.7 74 6 42.7 0 0
04:25 1021 30.15 850 25.1 10.5 50.9 73 5.9 42.5 0 0
04:30 1021 30.15 850 25.1 10.1 50.3 72 5.3 41.5 0 0
04:35 1021 30.15 850 25.1 10.7 51.2 68 5.2 41.3 0 0
04:40 1021 30.15 850 25.1 10.6 51 72 5.8 42.5 0 0
04:45 1021 30.15 850 25.1 9.8 49.6 75 5.6 42.1 0 0
04:50 1021 30.15 850 25.1 9.9 49.7 76 5.9 42.7 0 0
04:55 1021 30.15 850 25.1 9.6 49.2 78 6 42.7 0 0
05:00 1021 30.15 851 25.13 9.5 49.1 75 5.3 41.5 0 0
05:05 1021 30.15 851 25.13 10.4 50.7 72 5.5 42 0 0
05:10 1021 30.15 851 25.13 10.6 51.1 72 5.8 42.5 0 0
05:15 1021 30.15 851 25.13 11 51.7 71 6 42.8 0 0
05:20 1021 30.15 851 25.13 11.5 52.8 69 6 42.9 0 0
05:25 1021 30.15 851 25.13 12 53.7 69 6.5 43.6 0 0
05:30 1021 30.15 851 25.13 11.6 52.8 70 6.3 43.4 0 0
05:35 1021 30.15 851 25.13 10.9 51.6 73 6.3 43.3 0 0
05:40 1021 30.15 851 25.13 10.3 50.5 74 5.9 42.6 0 0
05:45 1021 30.15 851 25.13 10.2 50.4 74 5.8 42.5 0 0
05:50 1021 30.15 851 25.13 10.4 50.8 73 5.8 42.4 0 0
05:55 1021 30.15 851 25.13 11.2 52.1 69 5.8 42.4 0 0
06:00 1021 30.15 851 25.13 11.8 53.2 69 6.4 43.6 0 0
06:05 1021 30.15 851 25.13 11.1 52 69 5.7 42.3 0 0
06:10 1021 30.15 851 25.13 11 51.7 70 5.7 42.3 0 0
06:15 1021 30.15 851 25.13 10.1 50.3 76 6.1 42.9 0 0
06:20 1021 30.15 851 25.13 9.3 48.7 78 5.7 42.2 0 0
06:25 1021 30.15 851 25.13 9.1 48.4 78 5.6 42.1 0 0
06:30 1022 30.18 851 25.13 9.2 48.6 79 5.7 42.3 0 0
06:35 1022 30.18 851 25.13 9.2 48.6 78 5.6 42.1 0 0
06:40 1022 30.18 851 25.13 9 48.1 79 5.6 42 0 0
06:45 1022 30.18 851 25.13 9.4 49 78 5.7 42.3 0 0
06:50 1022 30.18 851 25.13 9.4 49 77 5.6 42.1 0 0
06:55 1022 30.18 851 25.13 9.7 49.4 77 5.8 42.5 0 0
07:00 1022 30.18 851 25.13 9.8 49.6 75 5.6 42.1 0 0
07:05 1022 30.18 851 25.13 10.4 50.7 75 6.1 43 0 0
07:10 1022 30.18 851 25.13 11.1 51.9 72 6.3 43.3 0 0
07:15 1022 30.18 851 25.13 11.4 52.4 73 6.7 44 0 0
07:20 1022 30.18 851 25.13 11.5 52.6 72 6.6 43.9 0 0
07:25 1022 30.18 851 25.13 11.7 53.1 72 7 44.6 0 0
07:30 1022 30.18 851 25.13 12 53.6 72 7.2 44.9 0 0
07:35 1022 30.18 851 25.13 12.3 54.2 71 7.3 45.2 0 0
07:40 1022 30.18 851 25.13 12.8 55 72 7.8 46.1 0 0
07:45 1022 30.18 851 25.13 13.4 56.2 63 6.6 43.8 0 0
07:50 1022 30.18 851 25.13 14 57.2 61 6.6 43.9 0 0
07:55 1022 30.18 851 25.13 14.3 57.7 61 7 44.6 0 0
08:00 1022 30.18 851 25.13 14.5 58.2 61 7.1 44.7 0 0
08:05 1022 30.18 851 25.13 14.7 58.5 58 6.7 44.1 0 0
08:10 1022 30.18 851 25.13 15.1 59.1 57 6.7 44.1 0 0
08:15 1022 30.18 851 25.13 15.6 60.1 55 6.8 44.2 0 0
08:20 1022 30.18 851 25.13 15.9 60.7 56 7.4 45.3 0 0
08:25 1022 30.18 851 25.13 16.1 61 56 7.3 45.2 0 0
08:30 1022 30.18 851 25.13 16.2 61.1 59 8.2 46.8 0 0
08:35 1022 30.18 851 25.13 15.8 60.4 61 8.5 47.2 0 0
08:40 1022 30.18 851 25.13 15.8 60.5 61 8.5 47.2 0 0
08:45 1022 30.18 851 25.13 16.6 61.8 55 7.5 45.5 0 0
08:50 1022 30.18 851 25.13 17.2 63 47 6 42.8 0 0
08:55 1022 30.18 851 25.13 18.1 64.6 47 6.8 44.3 0 0
09:00 1022 30.18 851 25.13 18.8 65.9 49 8 46.3 0 0
09:05 1022 30.18 851 25.13 18.9 66 48 7.7 45.9 0 0
09:10 1022 30.18 851 25.13 19.1 66.3 46 7.4 45.4 0 0
09:15 1022 30.18 851 25.13 19.4 66.8 46 7.7 45.9 0 0
09:20 1022 30.18 851 25.13 19.6 67.2 44 7.3 45.1 0 0
09:25 1022 30.18 851 25.13 19.7 67.4 44 7.4 45.3 0 0
09:30 1022 30.18 851 25.13 20.1 68.1 45 8 46.4 0 0
09:35 1022 30.18 851 25.13 20.5 68.9 42 7.1 44.8 0 0
09:40 1022 30.18 851 25.13 20.7 69.2 41 7.2 44.9 0 0
09:45 1022 30.18 851 25.13 20.5 69 42 7.3 45.1 0 0
09:50 1022 30.18 851 25.13 20.3 68.6 45 8.1 46.6 0 0
09:55 1022 30.18 851 25.13 20.5 68.8 44 8.1 46.6 0 0
10:00 1022 30.18 851 25.13 20.9 69.5 40 6.8 44.2 0 0
10:05 1022 30.18 851 25.13 21.1 69.9 40 7 44.6 0 0
10:10 1022 30.18 851 25.13 21.4 70.5 41 7.9 46.1 0 0
10:15 1022 30.18 851 25.13 21.4 70.5 41 7.9 46.2 0 0
10:20 1022 30.18 851 25.13 21.5 70.6 38 6.8 44.3 0 0
10:25 1022 30.18 851 25.13 21.7 71 41 8.1 46.6 0 0
10:30 1022 30.18 851 25.13 21.6 70.9 41 7.9 46.2 0 0
10:35 1022 30.18 851 25.13 21.5 70.7 40 7.5 45.4 0 0
10:40 1022 30.18 851 25.13 21.5 70.7 38 6.9 44.4 0 0
10:45 1022 30.18 851 25.13 21.6 70.9 41 8.1 46.6 0 0
10:50 1022 30.18 851 25.13 21.9 71.4 42 8.7 47.7 0 0
10:55 1022 30.18 851 25.13 22.2 71.9 40 7.9 46.3 0 0
11:00 1022 30.18 851 25.13 22 71.7 46 10.2 50.3 0 0
11:05 1022 30.18 851 25.13 22.3 72.1 40 8.3 46.9 0 0
11:10 1022 30.18 851 25.13 22.3 72.1 43 9.2 48.5 0 0
11:15 1022 30.18 851 25.13 22.7 72.9 38 7.7 45.9 0 0
11:20 1022 30.18 851 25.13 22.6 72.6 37 7.5 45.5 0 0
11:25 1022 30.18 851 25.13 22.8 73 44 10 49.9 0 0
11:30 1022 30.18 851 25.13 22.6 72.7 42 9.3 48.8 0 0
11:35 1022 30.18 851 25.13 22.5 72.6 43 9.4 48.8 0 0
11:40 1022 30.18 851 25.13 22.6 72.7 38 7.8 46 0 0
11:45 1022 30.18 851 25.13 23 73.4 38 8.2 46.8 0 0
11:50 1021 30.15 851 25.13 22.8 73 42 9.3 48.7 0 0
11:55 1021 30.15 851 25.13 22.8 73.1 37 7.4 45.3 0 0
12:00 1021 30.15 851 25.13 23.1 73.5 39 8.4 47.1 0 0
12:05 1021 30.15 851 25.13 23.3 73.9 39 8.8 47.8 0 0
12:10 1021 30.15 850 25.1 23.2 73.8 38 8.4 47.1 0 0
12:15 1021 30.15 850 25.1 23.5 74.2 36 7.9 46.2 0 0
12:20 1021 30.15 850 25.1 23.7 74.7 33 6.8 44.3 0 0
12:25 1021 30.15 850 25.1 23.8 74.9 37 8.3 46.9 0 0
12:30 1021 30.15 850 25.1 23.9 75 37 8.5 47.3 0 0
12:35 1021 30.15 850 25.1 24.1 75.4 36 8.2 46.8 0 0
12:40 1021 30.15 850 25.1 24.1 75.4 37 8.5 47.3 0 0
12:45 1021 30.15 850 25.1 24.3 75.7 36 8.6 47.5 0 0
12:50 1021 30.15 850 25.1 24.4 75.8 40 10 50 0 0
12:55 1021 30.15 850 25.1 24.5 76.1 36 8.7 47.7 0 0
13:00 1021 30.15 850 25.1 24.5 76.1 39 10 50 0 0
13:05 1021 30.15 850 25.1 24.8 76.7 35 8.5 47.3 0 0
13:10 1021 30.15 850 25.1 24.6 76.3 34 7.8 46 0 0
13:15 1021 30.15 850 25.1 24.5 76.2 34 8 46.4 0 0
13:20 1020 30.12 850 25.1 24.6 76.4 37 9 48.2 0 0
13:25 1020 30.12 850 25.1 24.7 76.4 37 9.4 49 0 0
13:30 1020 30.12 850 25.1 25 76.9 33 8 46.3 0 0
13:35 1020 30.12 850 25.1 24.9 76.8 39 10.1 50.2 0 0
13:40 1020 30.12 850 25.1 25 77 33 7.9 46.2 0 0
13:45 1020 30.12 850 25.1 24.7 76.5 33 7.5 45.5 0 0
13:50 1020 30.12 850 25.1 24.3 75.7 34 7.8 46 0 0
13:55 1020 30.12 850 25.1 24 75.2 34 7.4 45.3 0 0
14:00 1020 30.12 850 25.1 23.8 74.9 37 8.3 47 0 0
14:05 1020 30.12 850 25.1 23.8 74.8 36 8.2 46.8 0 0
14:10 1020 30.12 850 25.1 23.8 74.8 39 9.2 48.5 0 0
14:15 1020 30.12 850 25.1 23.7 74.6 42 10.3 50.6 0 0
14:20 1020 30.12 850 25.1 23.6 74.5 43 10.5 50.9 0 0
14:25 1020 30.12 850 25.1 23.3 74 38 8.4 47.1 0 0
14:30 1021 30.15 850 25.1 23.4 74 38 8.4 47.1 0 0
14:35 1020 30.12 850 25.1 23.3 73.9 43 10 50 0 0
14:40 1020 30.12 850 25.1 23.3 73.9 42 9.7 49.5 0 0
14:45 1020 30.12 850 25.1 23.9 74.9 37 8.4 47.2 0 0
14:50 1020 30.12 850 25.1 24.5 76.1 35 8.3 46.9 0 0
14:55 1020 30.12 850 25.1 24.5 76.1 37 8.9 48 0 0
15:00 1020 30.12 850 25.1 24.7 76.5 33 7.7 45.8 0 0
15:05 1020 30.12 850 25.1 25 77.1 30 6.7 44.1 0 0
15:10 1020 30.12 850 25.1 25.4 77.7 31 7.2 45 0 0
15:15 1020 30.12 850 25.1 25.3 77.5 31 7 44.5 0 0
15:20 1020 30.12 850 25.1 24.8 76.6 30 6.4 43.6 0 0
15:25 1020 30.12 850 25.1 24.4 76 34 7.9 46.1 0 0
15:30 1020 30.12 850 25.1 24.2 75.6 33 7.1 44.8 0 0
15:35 1021 30.15 850 25.1 24.1 75.4 32 6.7 44 0 0
15:40 1021 30.15 850 25.1 23.9 75 32 6.3 43.3 0 0
15:45 1021 30.15 850 25.1 23.9 75 31 5.8 42.4 0 0
15:50 1021 30.15 850 25.1 23.8 74.8 31 6 42.9 0 0
15:55 1020 30.12 850 25.1 23.6 74.5 31 5.8 42.4 0 0
16:00 1020 30.12 850 25.1 23.4 74 34 7 44.6 0 0
16:05 1020 30.12 850 25.1 23.2 73.7 35 7.2 44.9 0 0
16:10 1020 30.12 850 25.1 23 73.4 35 7 44.6 0 0
16:15 1020 30.12 850 25.1 22.9 73.1 36 7.2 44.9 0 0
16:20 1020 30.12 850 25.1 22.7 72.9 37 7.6 45.7 0 0
16:25 1021 30.15 850 25.1 22.6 72.6 36 6.9 44.5 0 0
16:30 1021 30.15 850 25.1 22.4 72.3 36 6.7 44.1 0 0
16:35 1021 30.15 850 25.1 22.5 72.4 33 5.6 42.1 0 0
16:40 1021 30.15 850 25.1 22.6 72.7 36 7 44.6 0 0
16:45 1021 30.15 850 25.1 21.7 71 41 8.1 46.5 0 0
16:50 1021 30.15 850 25.1 21.4 70.5 39 7 44.6 0 0
16:55 1021 30.15 850 25.1 21.3 70.3 43 8.3 47 0 0
17:00 1021 30.15 850 25.1 21.3 70.4 39 7 44.6 0 0
17:05 1021 30.15 850 25.1 21.4 70.5 39 6.9 44.4 0 0
17:10 1021 30.15 850 25.1 21.3 70.3 41 7.6 45.6 0 0
17:15 1021 30.15 850 25.1 21.4 70.5 40 7.2 45 0 0
17:20 1021 30.15 851 25.13 21.1 70 46 9.1 48.3 0 0
17:25 1021 30.15 851 25.13 20.5 68.9 47 8.8 47.9 0 0
17:30 1022 30.18 851 25.13 20.1 68.2 47 8.6 47.6 0 0
17:35 1022 30.18 851 25.13 19.4 67 51 9.3 48.7 0 0
17:40 1022 30.18 851 25.13 18.4 65.2 56 9.6 49.3 0 0
17:45 1022 30.18 851 25.13 17.8 64 57 9.1 48.5 0 0
17:50 1022 30.18 851 25.13 17.6 63.6 56 8.8 47.8 0 0
17:55 1022 30.18 851 25.13 17.5 63.5 55 8.4 47.1 0 0
18:00 1022 30.18 851 25.13 17.5 63.5 55 8.5 47.4 0 0
18:05 1022 30.18 851 25.13 17.6 63.7 53 8.1 46.5 0 0
18:10 1022 30.18 851 25.13 18 64.3 50 7.5 45.5 0 0
18:15 1022 30.18 851 25.13 18.1 64.6 54 8.7 47.7 0 0
18:20 1022 30.18 851 25.13 17 62.6 62 9.8 49.6 0 0
18:25 1022 30.18 851 25.13 16.5 61.8 59 8.7 47.6 0 0
18:30 1022 30.18 851 25.13 16.6 61.8 61 9.1 48.4 0 0
18:35 1022 30.18 851 25.13 16.4 61.5 64 9.7 49.4 0 0
18:40 1022 30.18 851 25.13 16.1 60.9 65 9.6 49.2 0 0
18:45 1022 30.18 851 25.13 16 60.8 62 8.8 47.8 0 0
18:50 1022 30.18 851 25.13 16.3 61.3 62 9.2 48.5 0 0
18:55 1022 30.18 851 25.13 16.2 61.1 64 9.5 49.2 0 0
19:00 1022 30.18 851 25.13 16 60.8 65 9.5 49.2 0 0
19:05 1022 30.18 851 25.13 15.9 60.7 65 9.4 49 0 0
19:10 1022 30.18 851 25.13 16 60.7 65 9.5 49.1 0 0
19:15 1022 30.18 851 25.13 15.8 60.4 66 9.5 49.2 0 0
19:20 1022 30.18 851 25.13 15.7 60.2 66 9.4 48.8 0 0
19:25 1022 30.18 851 25.13 15.8 60.4 65 9.2 48.5 0 0
19:30 1022 30.18 851 25.13 15.9 60.5 65 9.3 48.7 0 0
19:35 1022 30.18 851 25.13 15.9 60.6 63 8.9 48 0 0
19:40 1022 30.18 851 25.13 16 60.8 62 8.9 48 0 0
19:45 1022 30.18 851 25.13 15.9 60.7 63 9 48.2 0 0
19:50 1022 30.18 851 25.13 15.8 60.5 64 9 48.3 0 0
19:55 1022 30.18 851 25.13 15.8 60.4 65 9.3 48.7 0 0
20:00 1022 30.18 851 25.13 15.6 60.2 66 9.3 48.7 0 0
20:05 1022 30.18 851 25.13 15.5 59.9 67 9.4 49 0 0
20:10 1022 30.18 851 25.13 15.4 59.8 66 9.2 48.6 0 0
20:15 1022 30.18 851 25.13 15.5 59.9 66 9.1 48.5 0 0
20:20 1022 30.18 851 25.13 15.6 60 66 9.4 48.9 0 0
20:25 1022 30.18 851 25.13 15.4 59.7 68 9.5 49.1 0 0
20:30 1022 30.18 851 25.13 15.3 59.5 68 9.4 49 0 0
20:35 1022 30.18 851 25.13 15.2 59.4 69 9.7 49.4 0 0
20:40 1022 30.18 851 25.13 15.2 59.3 68 9.3 48.7 0 0
20:45 1022 30.18 851 25.13 15.3 59.5 68 9.5 49.1 0 0
20:50 1022 30.18 851 25.13 15.3 59.5 68 9.4 48.9 0 0
20:55 1022 30.18 851 25.13 15.3 59.5 68 9.5 49 0 0
21:00 1022 30.18 851 25.13 15.2 59.4 68 9.4 49 0 0
21:05 1022 30.18 851 25.13 15.2 59.3 68 9.5 49 0 0
21:10 1022 30.18 851 25.13 15 59.1 69 9.4 48.9 0 0
21:15 1022 30.18 851 25.13 15 58.9 70 9.6 49.3 0 0
21:20 1022 30.18 851 25.13 14.8 58.6 71 9.6 49.3 0 0
21:25 1022 30.18 851 25.13 14.6 58.3 74 10 50 0 0
21:30 1022 30.18 851 25.13 14.2 57.5 77 10.2 50.4 0 0
21:35 1022 30.18 851 25.13 13.9 56.9 78 10.2 50.3 0 0
21:40 1022 30.18 851 25.13 13.7 56.7 79 10.2 50.4 0 0
21:45 1022 30.18 851 25.13 13.6 56.5 80 10.2 50.4 0 0
21:50 1022 30.18 851 25.13 13.6 56.6 79 10.1 50.2 0 0
21:55 1022 30.18 851 25.13 13.6 56.4 80 10.1 50.2 0 0
22:00 1022 30.18 852 25.16 13.5 56.3 79 10 50.1 0 0
22:05 1022 30.18 852 25.16 13.7 56.6 78 10 50 0 0
22:10 1022 30.18 852 25.16 13.9 57.1 76 9.9 49.8 0 0
22:15 1023 30.21 852 25.16 14 57.3 77 10 50.1 0 0
22:20 1023 30.21 852 25.16 14.1 57.4 75 9.8 49.6 0 0
22:25 1023 30.21 852 25.16 14.3 57.7 75 9.9 49.7 0 0
22:30 1023 30.21 852 25.16 14.3 57.7 73 9.6 49.4 0 0
22:35 1023 30.21 852 25.16 14.4 57.9 73 9.6 49.3 0 0
22:40 1023 30.21 852 25.16 14.3 57.7 73 9.5 49.2 0 0
22:45 1023 30.21 852 25.16 14.1 57.3 74 9.5 49.1 0 0
22:50 1023 30.21 852 25.16 14 57.1 73 9.3 48.8 0 0
22:55 1023 30.21 852 25.16 13.8 56.8 75 9.4 48.9 0 0
23:00 1023 30.21 852 25.16 13 55.4 79 9.5 49.1 0 0
23:05 1023 30.21 852 25.16 13 55.5 77 9.1 48.4 0 0
23:10 1023 30.21 852 25.16 12.8 55 79 9.2 48.6 0 0
23:15 1023 30.21 852 25.16 12.3 54.2 80 9.1 48.3 0 0
23:20 1023 30.21 852 25.16 12.5 54.4 79 9 48.2 0 0
23:25 1023 30.21 852 25.16 12.6 54.7 78 8.8 47.9 0 0
23:30 1023 30.21 852 25.16 12.6 54.8 78 8.9 48 0 0
23:35 1023 30.21 852 25.16 12.8 55 76 8.8 47.8 0 0
23:40 1023 30.21 852 25.16 12.9 55.1 77 9 48.1 0 0
23:45 1023 30.21 852 25.16 12.7 54.9 78 8.9 48.1 0 0
23:50 1023 30.21 852 25.16 12.6 54.7 77 8.8 47.8 0 0
23:55 1023 30.21 852 25.16 12.6 54.6 78 8.8 47.8 0 0
24:00 1023 30.21 852 25.16 12.7 54.8 75 8.5 47.2 0 0